Time;durP1;ratioP1;P1;durP2;ratioP2;P2;SDS_P1;SDS_P2;PMS_P1;PMS_P2;Temp;Humidity;BMP_temperature;BMP_pressure;BME280_temperature;BME280_humidity;BME280_pressure;Samples;Min_cycle;Max_cycle;Signal;HPM_P1;HPM_P2
2022/08/15 00:00:45;;;;;;;;;;;23.80;62.40;;;;;;5126080;27;19919;-63
2022/08/15 00:03:20;;;;;;;;;;;23.80;62.30;;;;;;5130974;27;19919;-64
2022/08/15 00:05:47;;;;;;;;;;;23.60;62.30;;;;;;5127903;27;19919;-64
2022/08/15 00:08:13;;;;;;;;;;;23.70;62.30;;;;;;5127890;27;19927;-65
2022/08/15 00:10:44;;;;;;;;;;;23.60;62.30;;;;;;5130057;27;19923;-63
2022/08/15 00:13:12;;;;;;;;;;;23.60;62.30;;;;;;5130627;27;19939;-64
2022/08/15 00:15:39;;;;;;;;;;;23.60;62.00;;;;;;5131088;27;19927;-64
2022/08/15 00:18:06;;;;;;;;;;;23.60;62.00;;;;;;5124098;27;19963;-66
2022/08/15 00:20:37;;;;;;;;;;;23.60;61.90;;;;;;5126931;27;20292;-65
2022/08/15 00:23:04;;;;;;;;;;;23.60;62.00;;;;;;5128676;27;20424;-65
2022/08/15 00:25:31;;;;;;;;;;;23.60;62.00;;;;;;5126435;27;19929;-64
2022/08/15 00:27:59;;;;;;;;;;;23.50;62.10;;;;;;5128601;27;19919;-64
2022/08/15 00:30:26;;;;;;;;;;;23.50;62.10;;;;;;5129928;27;19951;-63
2022/08/15 00:32:53;;;;;;;;;;;23.50;62.00;;;;;;5125606;28;19919;-64
2022/08/15 00:35:39;;;;;;;;;;;23.50;62.20;;;;;;5127758;27;19919;-64
2022/08/15 00:38:07;;;;;;;;;;;23.50;62.30;;;;;;5128121;27;19952;-64
2022/08/15 00:41:39;;;;;;;;;;;23.40;62.60;;;;;;5128541;27;19925;-65
2022/08/15 00:43:22;;;;;;;;;;;23.40;62.70;;;;;;5129955;27;19919;-64
2022/08/15 00:45:49;;;;;;;;;;;23.40;62.70;;;;;;5121692;27;20387;-64
2022/08/15 00:50:57;;;;;;;;;;;23.30;62.70;;;;;;5112342;27;19920;-64
2022/08/15 00:53:25;;;;;;;;;;;23.30;62.80;;;;;;5123726;27;19934;-64
2022/08/15 00:55:52;;;;;;;;;;;23.40;62.60;;;;;;5122029;27;20433;-64
2022/08/15 00:58:20;;;;;;;;;;;23.40;62.50;;;;;;5127845;27;19924;-66
2022/08/15 01:00:49;;;;;;;;;;;23.30;62.50;;;;;;5117818;27;20002;-64
2022/08/15 01:03:17;;;;;;;;;;;23.30;62.70;;;;;;5127961;27;19981;-64
2022/08/15 01:05:46;;;;;;;;;;;23.20;62.90;;;;;;5133282;27;19926;-65
2022/08/15 01:08:16;;;;;;;;;;;23.20;62.90;;;;;;5131211;27;19919;-65
2022/08/15 01:10:43;;;;;;;;;;;23.20;63.00;;;;;;5126363;27;19947;-63
2022/08/15 01:13:10;;;;;;;;;;;23.20;62.90;;;;;;5133289;27;19919;-64
2022/08/15 01:15:37;;;;;;;;;;;23.30;62.90;;;;;;5127486;27;20355;-64
2022/08/15 01:18:06;;;;;;;;;;;23.20;63.20;;;;;;5127159;27;19976;-64
2022/08/15 01:20:35;;;;;;;;;;;23.20;63.40;;;;;;5130013;27;19919;-65
2022/08/15 01:23:05;;;;;;;;;;;23.10;63.70;;;;;;5133993;27;19923;-64
2022/08/15 01:25:36;;;;;;;;;;;23.10;63.90;;;;;;5126499;27;19931;-63
2022/08/15 01:28:05;;;;;;;;;;;23.10;64.00;;;;;;5132091;27;19955;-64
2022/08/15 01:30:35;;;;;;;;;;;23.10;64.10;;;;;;5132968;27;19919;-64
2022/08/15 01:33:01;;;;;;;;;;;23.10;64.20;;;;;;5127906;27;19927;-65
2022/08/15 01:35:29;;;;;;;;;;;23.10;64.30;;;;;;5127274;27;19919;-64
2022/08/15 01:37:57;;;;;;;;;;;23.00;64.60;;;;;;5133206;27;20340;-65
2022/08/15 01:40:27;;;;;;;;;;;23.00;64.60;;;;;;5132806;27;19968;-63
2022/08/15 01:42:57;;;;;;;;;;;23.00;64.60;;;;;;5130299;27;19927;-63
2022/08/15 01:45:26;;;;;;;;;;;23.00;64.60;;;;;;5132236;27;19919;-63
2022/08/15 01:47:55;;;;;;;;;;;23.00;64.60;;;;;;5132731;27;19972;-65
2022/08/15 01:50:25;;;;;;;;;;;23.00;64.60;;;;;;5129262;27;19919;-64
2022/08/15 01:52:55;;;;;;;;;;;23.00;64.80;;;;;;5128328;27;20326;-63
2022/08/15 01:55:25;;;;;;;;;;;23.00;64.70;;;;;;5130427;27;19919;-65
2022/08/15 01:57:52;;;;;;;;;;;22.90;64.70;;;;;;5123187;27;19920;-65
2022/08/15 02:00:21;;;;;;;;;;;23.00;64.60;;;;;;5131077;27;19963;-63
2022/08/15 02:02:48;;;;;;;;;;;23.00;64.50;;;;;;5125853;27;19976;-65
2022/08/15 02:05:15;;;;;;;;;;;22.90;64.60;;;;;;5132444;27;20010;-64
2022/08/15 02:07:42;;;;;;;;;;;22.90;64.70;;;;;;5130700;27;19919;-63
2022/08/15 02:10:10;;;;;;;;;;;22.90;64.50;;;;;;5124861;27;19923;-64
2022/08/15 02:12:40;;;;;;;;;;;22.90;64.50;;;;;;5126321;27;19926;-64
2022/08/15 02:15:12;;;;;;;;;;;22.80;64.40;;;;;;5129793;27;19926;-64
2022/08/15 02:17:40;;;;;;;;;;;22.80;64.70;;;;;;5123420;27;20135;-64
2022/08/15 02:20:08;;;;;;;;;;;22.80;64.90;;;;;;5130141;27;19926;-64
2022/08/15 02:22:35;;;;;;;;;;;22.70;65.20;;;;;;5131368;27;20291;-64
2022/08/15 02:25:02;;;;;;;;;;;22.70;65.10;;;;;;5129823;27;20271;-63
2022/08/15 02:27:31;;;;;;;;;;;22.70;65.20;;;;;;5128407;27;19930;-64
2022/08/15 02:29:58;;;;;;;;;;;22.80;65.10;;;;;;5122984;27;19920;-64
2022/08/15 02:32:27;;;;;;;;;;;22.70;65.20;;;;;;5125141;27;20369;-65
2022/08/15 02:34:55;;;;;;;;;;;22.70;65.10;;;;;;5130878;27;20429;-65
2022/08/15 02:37:21;;;;;;;;;;;22.70;65.10;;;;;;5129950;27;19952;-65
2022/08/15 02:39:51;;;;;;;;;;;22.70;65.20;;;;;;5123974;27;20292;-63
2022/08/15 02:42:19;;;;;;;;;;;22.70;65.10;;;;;;5128627;27;20321;-64
2022/08/15 02:44:50;;;;;;;;;;;22.70;65.10;;;;;;5130212;27;20503;-65
2022/08/15 02:47:18;;;;;;;;;;;22.70;65.20;;;;;;5129759;27;20031;-65
2022/08/15 02:49:47;;;;;;;;;;;22.70;65.20;;;;;;5131208;27;19919;-65
2022/08/15 02:52:17;;;;;;;;;;;22.60;65.30;;;;;;5130051;27;19963;-64
2022/08/15 02:54:43;;;;;;;;;;;22.60;65.30;;;;;;5131297;27;20343;-64
2022/08/15 02:57:10;;;;;;;;;;;22.60;65.40;;;;;;5124648;27;20006;-64
2022/08/15 02:59:40;;;;;;;;;;;22.60;65.30;;;;;;5127776;27;20441;-64
2022/08/15 03:02:13;;;;;;;;;;;22.60;65.30;;;;;;5127972;27;20288;-64
2022/08/15 03:04:40;;;;;;;;;;;22.60;65.30;;;;;;5129615;27;19923;-65
2022/08/15 03:07:09;;;;;;;;;;;22.60;65.40;;;;;;5137399;27;19929;-65
2022/08/15 03:09:38;;;;;;;;;;;22.60;65.50;;;;;;5129690;27;19923;-65
2022/08/15 03:12:09;;;;;;;;;;;22.60;65.60;;;;;;5129146;27;19963;-64
2022/08/15 03:14:38;;;;;;;;;;;22.50;65.50;;;;;;5132197;27;19920;-64
2022/08/15 03:17:09;;;;;;;;;;;22.50;65.50;;;;;;5128661;27;19969;-65
2022/08/15 03:19:41;;;;;;;;;;;22.50;65.60;;;;;;5130099;27;19926;-64
2022/08/15 03:22:12;;;;;;;;;;;22.40;65.80;;;;;;5129981;27;19980;-65
2022/08/15 03:24:42;;;;;;;;;;;22.40;65.90;;;;;;5127154;27;20014;-65
2022/08/15 03:27:10;;;;;;;;;;;22.30;65.90;;;;;;5126438;27;19920;-65
2022/08/15 03:29:39;;;;;;;;;;;22.30;65.90;;;;;;5130199;27;20005;-65
2022/08/15 03:32:10;;;;;;;;;;;22.30;65.90;;;;;;5129149;27;19965;-64
2022/08/15 03:34:37;;;;;;;;;;;22.20;65.90;;;;;;5124508;27;20022;-65
2022/08/15 03:37:04;;;;;;;;;;;22.20;65.90;;;;;;5125314;27;19971;-64
2022/08/15 03:39:31;;;;;;;;;;;22.10;66.00;;;;;;5131159;27;19923;-64
2022/08/15 03:41:59;;;;;;;;;;;22.10;66.20;;;;;;5130391;27;19968;-65
2022/08/15 03:44:26;;;;;;;;;;;22.10;66.30;;;;;;5130171;27;19923;-65
2022/08/15 03:46:54;;;;;;;;;;;22.00;66.30;;;;;;5143365;27;19929;-65
2022/08/15 03:49:21;;;;;;;;;;;22.00;66.30;;;;;;5129384;27;19949;-64
2022/08/15 03:51:47;;;;;;;;;;;22.00;66.30;;;;;;5128949;27;19923;-65
2022/08/15 03:54:14;;;;;;;;;;;22.00;66.30;;;;;;5119228;27;19970;-65
2022/08/15 03:56:43;;;;;;;;;;;22.00;66.40;;;;;;5124325;27;19919;-65
2022/08/15 03:59:14;;;;;;;;;;;22.00;66.30;;;;;;5124819;27;19919;-64
2022/08/15 04:01:42;;;;;;;;;;;21.90;66.30;;;;;;5124903;27;19926;-65
2022/08/15 04:04:10;;;;;;;;;;;22.00;66.40;;;;;;5128548;27;19994;-64
2022/08/15 04:06:41;;;;;;;;;;;22.00;66.30;;;;;;5143265;27;19930;-65
2022/08/15 04:09:08;;;;;;;;;;;22.00;66.20;;;;;;5126821;28;19979;-65
2022/08/15 04:11:37;;;;;;;;;;;22.00;66.20;;;;;;5122350;28;19962;-65
2022/08/15 04:14:08;;;;;;;;;;;22.00;66.00;;;;;;5128446;27;19919;-65
2022/08/15 04:16:36;;;;;;;;;;;22.00;65.90;;;;;;5127457;27;19926;-64
2022/08/15 04:19:04;;;;;;;;;;;22.00;65.90;;;;;;5127023;27;19919;-65
2022/08/15 04:21:32;;;;;;;;;;;22.00;65.70;;;;;;5128408;27;20044;-65
2022/08/15 04:23:59;;;;;;;;;;;21.90;65.80;;;;;;5120133;27;20255;-65
2022/08/15 04:26:26;;;;;;;;;;;22.00;65.80;;;;;;5127183;28;19923;-64
2022/08/15 04:28:53;;;;;;;;;;;21.90;65.80;;;;;;5125995;27;19927;-65
2022/08/15 04:31:21;;;;;;;;;;;21.90;65.70;;;;;;5125563;28;19980;-65
2022/08/15 04:33:50;;;;;;;;;;;22.00;65.60;;;;;;5126362;27;19977;-65
2022/08/15 04:36:20;;;;;;;;;;;22.00;65.50;;;;;;5142772;27;19919;-65
2022/08/15 04:38:52;;;;;;;;;;;22.00;65.60;;;;;;5126828;27;20484;-65
2022/08/15 04:41:20;;;;;;;;;;;22.00;65.50;;;;;;5133783;27;19923;-65
2022/08/15 04:43:48;;;;;;;;;;;22.00;65.60;;;;;;5133765;27;19919;-64
2022/08/15 04:46:19;;;;;;;;;;;22.00;65.50;;;;;;5131410;27;19923;-63
2022/08/15 04:48:46;;;;;;;;;;;22.00;65.50;;;;;;5133104;27;20441;-65
2022/08/15 04:51:14;;;;;;;;;;;22.00;65.60;;;;;;5132948;27;20323;-65
2022/08/15 04:53:44;;;;;;;;;;;21.90;65.80;;;;;;5134301;27;20041;-64
2022/08/15 04:56:12;;;;;;;;;;;22.00;65.90;;;;;;5130614;27;20026;-65
2022/08/15 04:58:39;;;;;;;;;;;22.00;66.20;;;;;;5131347;27;19971;-64
2022/08/15 05:01:12;;;;;;;;;;;22.00;66.40;;;;;;5130878;27;20567;-63
2022/08/15 05:04:05;;;;;;;;;;;22.00;66.50;;;;;;5122916;27;19957;-65
2022/08/15 05:06:33;;;;;;;;;;;22.00;66.70;;;;;;5132297;27;19927;-64
2022/08/15 05:09:05;;;;;;;;;;;22.00;66.90;;;;;;5130084;27;19923;-65
2022/08/15 05:11:32;;;;;;;;;;;21.90;67.10;;;;;;5130610;27;19931;-65
2022/08/15 05:13:59;;;;;;;;;;;22.00;67.10;;;;;;5133480;27;20039;-64
2022/08/15 05:16:30;;;;;;;;;;;22.00;67.10;;;;;;5125719;27;19966;-65
2022/08/15 05:18:57;;;;;;;;;;;22.00;67.20;;;;;;5132184;27;20348;-65
2022/08/15 05:21:24;;;;;;;;;;;22.00;67.30;;;;;;5132620;27;19931;-63
2022/08/15 05:23:53;;;;;;;;;;;22.10;67.20;;;;;;5132278;27;19927;-65
2022/08/15 05:26:23;;;;;;;;;;;22.10;67.10;;;;;;5133875;27;20273;-64
2022/08/15 05:28:49;;;;;;;;;;;22.10;66.90;;;;;;5134334;27;19919;-65
2022/08/15 05:31:17;;;;;;;;;;;22.10;66.80;;;;;;5127842;27;19919;-64
2022/08/15 05:33:46;;;;;;;;;;;22.10;66.30;;;;;;5131019;27;20572;-65
2022/08/15 05:36:14;;;;;;;;;;;22.10;66.10;;;;;;5126864;27;19923;-64
2022/08/15 05:38:44;;;;;;;;;;;22.10;65.90;;;;;;5131238;27;19927;-64
2022/08/15 05:41:21;;;;;;;;;;;22.20;65.80;;;;;;5130866;27;19923;-64
2022/08/15 05:43:53;;;;;;;;;;;22.20;65.60;;;;;;5129739;27;20014;-64
2022/08/15 05:46:22;;;;;;;;;;;22.30;65.60;;;;;;5131042;27;20010;-63
2022/08/15 05:48:54;;;;;;;;;;;22.30;65.60;;;;;;5128392;27;20010;-64
2022/08/15 05:51:25;;;;;;;;;;;22.30;65.50;;;;;;5127074;27;19923;-65
2022/08/15 05:53:56;;;;;;;;;;;22.40;65.50;;;;;;5131070;27;19941;-64
2022/08/15 05:56:30;;;;;;;;;;;22.40;65.40;;;;;;5130029;27;19926;-63
2022/08/15 05:59:00;;;;;;;;;;;22.50;65.20;;;;;;5126868;27;19919;-64
2022/08/15 06:01:33;;;;;;;;;;;22.60;64.20;;;;;;5132857;27;19981;-65
2022/08/15 06:04:06;;;;;;;;;;;22.60;64.40;;;;;;5130744;27;19919;-64
2022/08/15 06:06:35;;;;;;;;;;;22.70;64.10;;;;;;5125974;27;19969;-63
2022/08/15 06:09:05;;;;;;;;;;;22.70;63.80;;;;;;5131312;27;19925;-64
2022/08/15 06:11:36;;;;;;;;;;;22.70;63.80;;;;;;5133938;27;19923;-65
2022/08/15 06:14:09;;;;;;;;;;;22.80;63.60;;;;;;5128033;27;19920;-65
2022/08/15 06:16:39;;;;;;;;;;;22.80;63.70;;;;;;5120428;27;19926;-64
2022/08/15 06:19:16;;;;;;;;;;;22.90;63.30;;;;;;5119904;27;20346;-65
2022/08/15 06:21:45;;;;;;;;;;;22.90;63.70;;;;;;5127238;27;20006;-65
2022/08/15 06:24:16;;;;;;;;;;;22.90;63.40;;;;;;5124778;27;19923;-64
2022/08/15 06:26:49;;;;;;;;;;;22.90;63.30;;;;;;5131168;27;20421;-64
2022/08/15 06:29:22;;;;;;;;;;;22.90;63.50;;;;;;5132388;27;19919;-64
2022/08/15 06:31:53;;;;;;;;;;;23.00;63.30;;;;;;5124750;27;19927;-64
2022/08/15 06:34:27;;;;;;;;;;;22.90;63.20;;;;;;5125495;27;19968;-63
2022/08/15 06:36:56;;;;;;;;;;;23.00;63.30;;;;;;5129717;27;20006;-63
2022/08/15 06:39:26;;;;;;;;;;;23.00;63.20;;;;;;5128290;27;20003;-64
2022/08/15 06:41:58;;;;;;;;;;;23.00;63.10;;;;;;5126656;27;20265;-64
2022/08/15 06:44:33;;;;;;;;;;;23.00;62.70;;;;;;5126640;27;19923;-63
2022/08/15 06:47:07;;;;;;;;;;;23.00;63.20;;;;;;5123518;27;20015;-64
2022/08/15 06:49:35;;;;;;;;;;;23.00;63.20;;;;;;5129120;27;19919;-64
2022/08/15 06:52:02;;;;;;;;;;;23.00;63.00;;;;;;5130427;27;20128;-64
2022/08/15 06:54:29;;;;;;;;;;;23.00;62.70;;;;;;5131093;27;20325;-64
2022/08/15 06:57:03;;;;;;;;;;;23.00;62.90;;;;;;5131615;27;20368;-64
2022/08/15 06:59:36;;;;;;;;;;;23.00;62.80;;;;;;5126378;27;19919;-65
2022/08/15 07:02:10;;;;;;;;;;;23.00;62.40;;;;;;5128023;27;19920;-64
2022/08/15 07:04:42;;;;;;;;;;;23.00;62.70;;;;;;5130215;27;20372;-64
2022/08/15 07:07:11;;;;;;;;;;;23.00;63.00;;;;;;5124735;27;19919;-65
2022/08/15 07:09:43;;;;;;;;;;;23.00;62.70;;;;;;5130012;27;20409;-64
2022/08/15 07:12:15;;;;;;;;;;;23.00;63.10;;;;;;5129578;27;19968;-64
2022/08/15 07:14:48;;;;;;;;;;;23.00;62.80;;;;;;5129584;27;20017;-64
2022/08/15 07:17:17;;;;;;;;;;;22.90;63.20;;;;;;5129461;27;20116;-64
2022/08/15 07:19:49;;;;;;;;;;;22.90;63.20;;;;;;5135785;27;19927;-64
2022/08/15 07:22:29;;;;;;;;;;;22.90;63.10;;;;;;5129081;27;20424;-64
2022/08/15 07:24:56;;;;;;;;;;;22.90;63.10;;;;;;5118896;27;19965;-64
2022/08/15 07:27:28;;;;;;;;;;;23.00;63.10;;;;;;5127608;27;19931;-63
2022/08/15 07:30:00;;;;;;;;;;;23.00;62.90;;;;;;5122181;27;20020;-65
2022/08/15 07:32:30;;;;;;;;;;;23.00;63.00;;;;;;5123802;27;19983;-64
2022/08/15 07:34:59;;;;;;;;;;;23.00;63.10;;;;;;5129208;27;19926;-64
2022/08/15 07:37:32;;;;;;;;;;;23.00;63.00;;;;;;5129369;27;19923;-64
2022/08/15 07:40:01;;;;;;;;;;;23.00;63.20;;;;;;5129446;27;19919;-64
2022/08/15 07:42:37;;;;;;;;;;;23.00;63.40;;;;;;5121915;27;19923;-64
2022/08/15 07:45:08;;;;;;;;;;;23.00;62.70;;;;;;5126905;27;20379;-64
2022/08/15 07:47:36;;;;;;;;;;;23.00;62.70;;;;;;5123795;27;20323;-64
2022/08/15 07:50:07;;;;;;;;;;;23.10;63.20;;;;;;5128272;27;19919;-63
2022/08/15 07:52:34;;;;;;;;;;;23.10;62.90;;;;;;5130522;27;19962;-63
2022/08/15 07:55:13;;;;;;;;;;;23.10;63.10;;;;;;5130722;27;20321;-64
2022/08/15 07:57:41;;;;;;;;;;;23.10;63.10;;;;;;5129181;27;19923;-63
2022/08/15 08:00:16;;;;;;;;;;;23.10;63.30;;;;;;5127260;27;19934;-64
2022/08/15 08:03:01;;;;;;;;;;;23.10;63.40;;;;;;5130041;27;19926;-64
2022/08/15 08:05:32;;;;;;;;;;;23.10;63.30;;;;;;5122272;27;19920;-64
2022/08/15 08:08:00;;;;;;;;;;;23.10;63.90;;;;;;5128636;27;20368;-64
2022/08/15 08:10:32;;;;;;;;;;;23.10;63.40;;;;;;5130365;27;20006;-65
2022/08/15 08:13:12;;;;;;;;;;;23.10;63.80;;;;;;5129369;27;19923;-63
2022/08/15 08:15:42;;;;;;;;;;;23.10;63.90;;;;;;5129585;27;20287;-63
2022/08/15 08:18:14;;;;;;;;;;;23.10;63.60;;;;;;5127325;27;19951;-64
2022/08/15 08:20:44;;;;;;;;;;;23.20;64.00;;;;;;5129053;27;19927;-63
2022/08/15 08:23:15;;;;;;;;;;;23.20;63.50;;;;;;5125563;27;19923;-64
2022/08/15 08:25:45;;;;;;;;;;;23.20;64.00;;;;;;5125271;27;20376;-63
2022/08/15 08:28:16;;;;;;;;;;;23.30;63.70;;;;;;5129139;27;20372;-65
2022/08/15 08:30:50;;;;;;;;;;;23.40;63.60;;;;;;5126941;28;19919;-63
2022/08/15 08:33:20;;;;;;;;;;;23.40;63.30;;;;;;5126026;27;19964;-64
2022/08/15 08:35:53;;;;;;;;;;;23.50;63.20;;;;;;5129314;27;19919;-64
2022/08/15 08:38:26;;;;;;;;;;;23.60;63.40;;;;;;5131522;27;19919;-64
2022/08/15 08:43:49;;;;;;;;;;;23.60;63.10;;;;;;5127459;27;19919;-63
2022/08/15 08:46:23;;;;;;;;;;;23.60;63.40;;;;;;5130280;27;20423;-64
2022/08/15 08:48:55;;;;;;;;;;;23.70;63.10;;;;;;5129954;27;20046;-63
2022/08/15 08:51:25;;;;;;;;;;;23.70;63.00;;;;;;5127803;27;19919;-65
2022/08/15 08:53:56;;;;;;;;;;;23.80;62.90;;;;;;5127300;27;19927;-63
2022/08/15 08:56:26;;;;;;;;;;;23.80;62.90;;;;;;5123293;27;19920;-63
2022/08/15 08:59:01;;;;;;;;;;;23.80;62.90;;;;;;5129184;27;19920;-62
2022/08/15 09:01:28;;;;;;;;;;;23.90;62.60;;;;;;5125057;27;19965;-64
2022/08/15 09:03:57;;;;;;;;;;;23.80;62.60;;;;;;5123414;27;19996;-65
2022/08/15 09:06:29;;;;;;;;;;;23.90;62.60;;;;;;5129357;27;19926;-64
2022/08/15 09:09:01;;;;;;;;;;;23.90;62.40;;;;;;5126992;27;19919;-63
2022/08/15 09:11:31;;;;;;;;;;;23.90;62.50;;;;;;5126815;27;20368;-64
2022/08/15 09:14:15;;;;;;;;;;;23.90;62.30;;;;;;5130281;27;19927;-63
2022/08/15 09:16:42;;;;;;;;;;;24.00;62.40;;;;;;5126667;27;20326;-64
2022/08/15 09:19:13;;;;;;;;;;;24.00;62.40;;;;;;5121866;27;20262;-63
2022/08/15 09:21:42;;;;;;;;;;;24.00;62.40;;;;;;5119221;27;19919;-63
2022/08/15 09:24:09;;;;;;;;;;;24.10;62.30;;;;;;5132602;27;19923;-63
2022/08/15 09:26:40;;;;;;;;;;;24.10;62.40;;;;;;5131903;27;19923;-65
2022/08/15 09:29:13;;;;;;;;;;;24.20;62.50;;;;;;5130160;27;20364;-63
2022/08/15 09:31:42;;;;;;;;;;;24.20;62.30;;;;;;5135020;27;20002;-64
2022/08/15 09:34:36;;;;;;;;;;;24.30;62.20;;;;;;5132284;27;19919;-64
2022/08/15 09:37:25;;;;;;;;;;;24.30;61.80;;;;;;5085505;27;19947;-63
2022/08/15 09:40:10;;;;;;;;;;;24.40;61.60;;;;;;5133178;27;19933;-64
2022/08/15 09:42:52;;;;;;;;;;;24.50;61.60;;;;;;5130036;27;20353;-64
2022/08/15 09:45:34;;;;;;;;;;;24.60;61.60;;;;;;5129818;27;19919;-63
2022/08/15 09:48:12;;;;;;;;;;;24.70;61.20;;;;;;5131178;27;19920;-63
2022/08/15 09:50:44;;;;;;;;;;;24.80;61.30;;;;;;5144046;27;20391;-64
2022/08/15 09:53:21;;;;;;;;;;;25.00;60.80;;;;;;5136955;27;19919;-64
2022/08/15 09:55:49;;;;;;;;;;;25.10;60.90;;;;;;5129271;27;19957;-64
2022/08/15 09:58:20;;;;;;;;;;;25.40;60.40;;;;;;5132988;27;19927;-63
2022/08/15 10:00:58;;;;;;;;;;;25.60;60.30;;;;;;5131066;27;19975;-63
2022/08/15 10:03:26;;;;;;;;;;;25.80;59.80;;;;;;5133349;27;20043;-64
2022/08/15 10:06:01;;;;;;;;;;;26.00;59.30;;;;;;5133677;27;20439;-64
2022/08/15 10:09:02;;;;;;;;;;;26.10;58.70;;;;;;5133646;27;20276;-63
2022/08/15 10:11:32;;;;;;;;;;;26.20;58.70;;;;;;5131929;27;19993;-63
2022/08/15 10:14:04;;;;;;;;;;;26.30;58.30;;;;;;5134121;27;19948;-63
2022/08/15 10:16:50;;;;;;;;;;;26.20;58.00;;;;;;5133719;27;20438;-65
2022/08/15 10:19:29;;;;;;;;;;;26.20;58.10;;;;;;5132789;27;19988;-63
2022/08/15 10:21:58;;;;;;;;;;;26.20;57.40;;;;;;5130845;27;19919;-64
2022/08/15 10:24:28;;;;;;;;;;;26.30;57.50;;;;;;5131624;27;20042;-64
2022/08/15 10:27:08;;;;;;;;;;;26.50;57.30;;;;;;5129249;27;19925;-65
2022/08/15 10:29:37;;;;;;;;;;;26.60;57.00;;;;;;5130369;27;19931;-65
2022/08/15 10:32:05;;;;;;;;;;;26.70;56.70;;;;;;5128776;27;19924;-65
2022/08/15 10:34:37;;;;;;;;;;;26.70;56.40;;;;;;5132473;27;19919;-63
2022/08/15 10:37:22;;;;;;;;;;;26.60;56.40;;;;;;5129254;27;19923;-64
2022/08/15 10:40:02;;;;;;;;;;;26.60;56.10;;;;;;5130205;27;20292;-65
2022/08/15 10:42:31;;;;;;;;;;;26.60;56.00;;;;;;5127105;27;20440;-64
2022/08/15 10:45:03;;;;;;;;;;;26.50;56.20;;;;;;5132046;27;19959;-65
2022/08/15 10:47:37;;;;;;;;;;;26.40;56.20;;;;;;5132237;27;19919;-64
2022/08/15 10:50:12;;;;;;;;;;;26.40;55.90;;;;;;5130648;27;20395;-63
2022/08/15 10:52:47;;;;;;;;;;;26.30;55.90;;;;;;5129243;27;20202;-64
2022/08/15 10:55:20;;;;;;;;;;;26.30;55.70;;;;;;5126166;27;19920;-64
2022/08/15 10:57:48;;;;;;;;;;;26.30;55.50;;;;;;5130902;27;19926;-66
2022/08/15 11:00:17;;;;;;;;;;;26.20;55.50;;;;;;5124096;27;20000;-64
2022/08/15 11:02:48;;;;;;;;;;;26.20;55.60;;;;;;5130030;27;19919;-63
2022/08/15 11:05:17;;;;;;;;;;;26.30;55.70;;;;;;5132661;27;19923;-64
2022/08/15 11:07:47;;;;;;;;;;;26.20;55.60;;;;;;5128827;27;19919;-63
2022/08/15 11:10:15;;;;;;;;;;;26.20;55.70;;;;;;5128157;27;19930;-63
2022/08/15 11:12:43;;;;;;;;;;;26.30;55.60;;;;;;5129053;27;20010;-64
2022/08/15 11:15:15;;;;;;;;;;;26.20;55.50;;;;;;5132271;27;19942;-65
2022/08/15 11:17:45;;;;;;;;;;;26.20;55.50;;;;;;5130975;27;19920;-64
2022/08/15 11:20:16;;;;;;;;;;;26.20;55.60;;;;;;5128331;27;20423;-64
2022/08/15 11:22:48;;;;;;;;;;;26.10;55.50;;;;;;5125668;27;19985;-64
2022/08/15 11:25:17;;;;;;;;;;;26.20;55.20;;;;;;5132408;27;19919;-63
2022/08/15 11:27:46;;;;;;;;;;;26.10;55.40;;;;;;5127117;27;19924;-63
2022/08/15 11:30:21;;;;;;;;;;;26.10;55.40;;;;;;5130816;27;20402;-63
2022/08/15 11:32:48;;;;;;;;;;;26.00;55.70;;;;;;5127274;27;19927;-64
2022/08/15 11:35:22;;;;;;;;;;;25.90;55.90;;;;;;5136150;27;19922;-63
2022/08/15 11:37:56;;;;;;;;;;;25.80;56.10;;;;;;5132032;27;19990;-63
2022/08/15 11:40:30;;;;;;;;;;;25.80;56.40;;;;;;5124650;27;19941;-65
2022/08/15 11:42:58;;;;;;;;;;;25.60;56.80;;;;;;5124785;27;19924;-64
2022/08/15 11:45:27;;;;;;;;;;;25.60;57.10;;;;;;5130185;27;19931;-64
2022/08/15 11:47:55;;;;;;;;;;;25.50;57.50;;;;;;5134270;27;20014;-62
2022/08/15 11:50:25;;;;;;;;;;;25.50;57.60;;;;;;5126565;27;19934;-64
2022/08/15 11:52:54;;;;;;;;;;;25.40;57.90;;;;;;5127776;27;19925;-63
2022/08/15 11:55:24;;;;;;;;;;;25.40;58.20;;;;;;5131902;27;19919;-63
2022/08/15 11:57:51;;;;;;;;;;;25.30;58.40;;;;;;5127748;27;19970;-63
2022/08/15 12:00:24;;;;;;;;;;;25.30;58.60;;;;;;5127074;27;19920;-64
2022/08/15 12:02:51;;;;;;;;;;;25.40;58.40;;;;;;5132174;27;19933;-63
2022/08/15 12:05:26;;;;;;;;;;;25.50;58.20;;;;;;5129020;27;19955;-64
2022/08/15 12:07:56;;;;;;;;;;;25.70;58.00;;;;;;5130367;27;19920;-65
2022/08/15 12:10:26;;;;;;;;;;;25.80;57.60;;;;;;5127406;27;19919;-63
2022/08/15 12:12:53;;;;;;;;;;;26.00;57.40;;;;;;5126647;27;19926;-63
2022/08/15 12:15:21;;;;;;;;;;;26.00;57.30;;;;;;5121936;27;20112;-63
2022/08/15 12:18:05;;;;;;;;;;;26.10;57.20;;;;;;5129831;27;19927;-64
2022/08/15 12:20:41;;;;;;;;;;;26.20;56.90;;;;;;5129315;27;19933;-63
2022/08/15 12:23:21;;;;;;;;;;;26.40;56.80;;;;;;5127771;27;20019;-63
2022/08/15 12:25:50;;;;;;;;;;;26.60;55.90;;;;;;5129689;27;20410;-65
2022/08/15 12:28:17;;;;;;;;;;;26.60;55.30;;;;;;5124575;27;20143;-65
2022/08/15 12:30:45;;;;;;;;;;;26.80;55.20;;;;;;5129588;27;19923;-63
2022/08/15 12:33:12;;;;;;;;;;;26.90;54.60;;;;;;5121205;27;19969;-63
2022/08/15 12:35:38;;;;;;;;;;;27.10;54.10;;;;;;5128649;27;19972;-63
2022/08/15 12:38:05;;;;;;;;;;;27.30;53.40;;;;;;5129580;27;20564;-63
2022/08/15 12:40:33;;;;;;;;;;;27.40;53.60;;;;;;5123938;27;20258;-65
2022/08/15 12:43:00;;;;;;;;;;;27.50;52.90;;;;;;5125922;27;19925;-63
2022/08/15 12:45:27;;;;;;;;;;;27.50;52.60;;;;;;5128823;27;19926;-63
2022/08/15 12:47:55;;;;;;;;;;;27.60;52.30;;;;;;5128817;27;19919;-64
2022/08/15 12:50:22;;;;;;;;;;;27.60;52.10;;;;;;5124816;27;19927;-64
2022/08/15 12:52:49;;;;;;;;;;;27.50;51.70;;;;;;5127262;27;19930;-63
2022/08/15 12:55:15;;;;;;;;;;;27.50;50.90;;;;;;5128856;27;20291;-63
2022/08/15 12:57:43;;;;;;;;;;;27.50;51.10;;;;;;5129917;27;19919;-65
2022/08/15 13:00:11;;;;;;;;;;;27.60;50.60;;;;;;5125423;27;19942;-64
2022/08/15 13:02:40;;;;;;;;;;;27.60;50.50;;;;;;5126570;27;20023;-64
2022/08/15 13:05:13;;;;;;;;;;;27.70;50.40;;;;;;5134376;27;19927;-63
2022/08/15 13:07:39;;;;;;;;;;;27.70;50.40;;;;;;5130086;27;20018;-65
2022/08/15 13:10:06;;;;;;;;;;;27.80;49.80;;;;;;5131440;27;20304;-64
2022/08/15 13:12:33;;;;;;;;;;;27.90;49.90;;;;;;5141342;27;19923;-64
2022/08/15 13:15:01;;;;;;;;;;;27.80;49.60;;;;;;5135400;27;20364;-64
2022/08/15 13:17:28;;;;;;;;;;;27.80;49.40;;;;;;5132302;27;20399;-63
2022/08/15 13:25:23;;;;;;;;;;;27.80;49.60;;;;;;5131790;27;19920;-64
2022/08/15 13:27:50;;;;;;;;;;;27.80;49.60;;;;;;5132220;27;19930;-65
2022/08/15 13:30:19;;;;;;;;;;;27.80;49.50;;;;;;5134388;27;19926;-64
2022/08/15 13:32:46;;;;;;;;;;;27.80;49.30;;;;;;5133526;27;19920;-65
2022/08/15 13:35:15;;;;;;;;;;;27.70;49.50;;;;;;5133731;27;19919;-64
2022/08/15 13:37:43;;;;;;;;;;;27.70;49.50;;;;;;5133675;27;19923;-64
2022/08/15 13:40:10;;;;;;;;;;;27.70;49.50;;;;;;5134413;27;19923;-65
2022/08/15 13:42:37;;;;;;;;;;;27.60;49.60;;;;;;5126417;27;19941;-65
2022/08/15 13:45:04;;;;;;;;;;;27.60;49.60;;;;;;5135794;27;19980;-65
2022/08/15 13:47:33;;;;;;;;;;;27.50;49.70;;;;;;5132712;27;19942;-63
2022/08/15 13:50:00;;;;;;;;;;;27.40;49.70;;;;;;5125669;27;20431;-65
2022/08/15 13:52:27;;;;;;;;;;;27.40;49.80;;;;;;5133090;27;19923;-64
2022/08/15 13:54:54;;;;;;;;;;;27.50;49.80;;;;;;5131282;27;19933;-64
2022/08/15 13:57:21;;;;;;;;;;;27.50;49.40;;;;;;5125104;27;19926;-63
2022/08/15 13:59:48;;;;;;;;;;;27.60;49.20;;;;;;5133402;27;19920;-64
2022/08/15 14:02:15;;;;;;;;;;;27.60;49.40;;;;;;5118395;27;20003;-63
2022/08/15 14:04:45;;;;;;;;;;;27.50;49.70;;;;;;5131477;27;19927;-64
2022/08/15 14:07:14;;;;;;;;;;;27.50;50.00;;;;;;5132917;27;19954;-62
2022/08/15 14:09:41;;;;;;;;;;;27.50;50.20;;;;;;5129247;27;19927;-63
2022/08/15 14:12:09;;;;;;;;;;;27.40;50.40;;;;;;5129252;27;19919;-63
2022/08/15 14:14:36;;;;;;;;;;;27.30;50.60;;;;;;5131582;27;20361;-64
2022/08/15 14:17:03;;;;;;;;;;;27.30;50.90;;;;;;5130245;27;19927;-63
2022/08/15 14:19:31;;;;;;;;;;;27.20;50.90;;;;;;5128596;27;19923;-64
2022/08/15 14:22:00;;;;;;;;;;;27.20;51.20;;;;;;5125333;27;19919;-63
2022/08/15 14:24:27;;;;;;;;;;;27.20;51.10;;;;;;5130220;27;19927;-65
2022/08/15 14:26:54;;;;;;;;;;;27.20;51.10;;;;;;5132603;27;19919;-63
2022/08/15 14:29:26;;;;;;;;;;;27.20;51.40;;;;;;5132484;27;20372;-64
2022/08/15 14:31:52;;;;;;;;;;;27.20;51.60;;;;;;5127580;27;19919;-64
2022/08/15 14:34:20;;;;;;;;;;;27.30;51.40;;;;;;5125231;27;19919;-64
2022/08/15 14:36:47;;;;;;;;;;;27.30;51.50;;;;;;5126960;27;19934;-64
2022/08/15 14:39:16;;;;;;;;;;;27.30;51.30;;;;;;5132390;27;19927;-64
2022/08/15 14:41:44;;;;;;;;;;;27.40;51.30;;;;;;5125717;27;19923;-63
2022/08/15 14:44:12;;;;;;;;;;;27.50;51.10;;;;;;5132816;27;20223;-64